Time;durP1;ratioP1;P1;durP2;ratioP2;P2;SDS_P1;SDS_P2;PMS_P1;PMS_P2;Temp;Humidity;BMP_temperature;BMP_pressure;BME280_temperature;BME280_humidity;BME280_pressure;Samples;Min_cycle;Max_cycle;Signal;HPM_P1;HPM_P2
2023/03/22 00:01:48;;;;;;;;;;;;;;;10.89;89.64;100994.56;20516656;28;19937;-59
2023/03/22 00:12:09;;;;;;;;;;;;;;;10.86;89.47;100992.03;20517834;28;19922;-58
2023/03/22 00:22:31;;;;;;;;;;;;;;;10.76;89.84;100975.09;20534366;28;19933;-60
2023/03/22 00:32:52;;;;;;;;;;;;;;;10.79;89.86;100958.59;20534788;28;19926;-60
2023/03/22 00:43:15;;;;;;;;;;;;;;;10.75;89.53;100955.25;20539236;28;19973;-60
2023/03/22 00:53:37;;;;;;;;;;;;;;;10.79;89.85;100941.34;20531565;28;20005;-59
2023/03/22 01:04:03;;;;;;;;;;;;;;;10.81;89.70;100926.63;20542640;28;19937;-59
2023/03/22 01:14:26;;;;;;;;;;;;;;;10.90;88.49;100916.00;20547219;28;19933;-60
2023/03/22 01:24:48;;;;;;;;;;;;;;;10.98;88.27;100914.03;20534355;28;19922;-60
2023/03/22 01:35:09;;;;;;;;;;;;;;;11.04;87.75;100911.25;20527684;28;19929;-59
2023/03/22 01:45:37;;;;;;;;;;;;;;;11.05;87.95;100900.00;20526726;28;20266;-60
2023/03/22 01:55:59;;;;;;;;;;;;;;;11.04;87.18;100898.28;20522057;28;19933;-60
2023/03/22 02:06:22;;;;;;;;;;;;;;;11.03;87.93;100881.06;20531919;28;20374;-62
2023/03/22 02:17:02;;;;;;;;;;;;;;;11.06;87.15;100875.78;20514529;28;19922;-60
2023/03/22 02:27:43;;;;;;;;;;;;;;;11.13;87.01;100866.94;20526869;28;19962;-60
2023/03/22 02:38:23;;;;;;;;;;;;;;;11.20;85.92;100853.78;20521098;28;20289;-61
2023/03/22 02:48:52;;;;;;;;;;;;;;;11.26;84.80;100843.25;20519543;28;20264;-58
2023/03/22 02:59:14;;;;;;;;;;;;;;;11.26;84.93;100846.69;20538909;28;19949;-58
2023/03/22 03:09:38;;;;;;;;;;;;;;;11.28;84.31;100831.09;20516881;28;19922;-58
2023/03/22 03:20:00;;;;;;;;;;;;;;;11.28;84.51;100828.50;20521361;28;20405;-59
2023/03/22 03:30:31;;;;;;;;;;;;;;;11.24;84.84;100832.94;20546314;28;19961;-57
2023/03/22 03:41:16;;;;;;;;;;;;;;;11.24;84.62;100817.41;20520993;28;19997;-58
2023/03/22 03:51:48;;;;;;;;;;;;;;;11.23;84.68;100813.09;20528743;28;20137;-59
2023/03/22 04:02:09;;;;;;;;;;;;;;;11.24;84.34;100806.19;20529678;28;19972;-58
2023/03/22 04:12:31;;;;;;;;;;;;;;;11.20;84.93;100804.59;20506870;28;19922;-60
2023/03/22 04:22:52;;;;;;;;;;;;;;;11.22;84.54;100797.63;20530535;28;20012;-59
2023/03/22 04:33:14;;;;;;;;;;;;;;;11.20;84.04;100794.22;20518509;28;20266;-60
2023/03/22 04:43:38;;;;;;;;;;;;;;;11.18;84.38;100796.00;20509432;28;19930;-59
2023/03/22 04:53:59;;;;;;;;;;;;;;;11.14;85.18;100783.19;20521120;28;19949;-58
2023/03/22 05:04:21;;;;;;;;;;;;;;;11.08;84.93;100764.38;20517389;28;19927;-60
2023/03/22 05:14:42;;;;;;;;;;;;;;;11.07;85.32;100760.97;20535486;28;19922;-60
2023/03/22 05:25:04;;;;;;;;;;;;;;;11.04;84.74;100752.47;20535661;28;19933;-60
2023/03/22 05:35:25;;;;;;;;;;;;;;;11.01;85.44;100737.88;20524993;28;20002;-60
2023/03/22 05:45:47;;;;;;;;;;;;;;;11.10;84.77;100732.38;20541498;28;19921;-59
2023/03/22 05:56:09;;;;;;;;;;;;;;;11.20;84.70;100726.88;20528679;28;19964;-59
2023/03/22 06:06:31;;;;;;;;;;;;;;;11.29;84.46;100717.06;20530625;28;19926;-60
2023/03/22 06:16:52;;;;;;;;;;;;;;;11.34;84.68;100724.66;20530350;28;19930;-59
2023/03/22 06:27:16;;;;;;;;;;;;;;;11.43;84.80;100716.56;20539592;28;19929;-60
2023/03/22 06:37:38;;;;;;;;;;;;;;;11.49;84.96;100711.16;20528388;28;19922;-58
2023/03/22 06:47:59;;;;;;;;;;;;;;;11.60;84.90;100699.53;20528312;28;19978;-59
2023/03/22 06:58:21;;;;;;;;;;;;;;;11.65;84.34;100704.56;20532547;28;19922;-59
2023/03/22 07:08:43;;;;;;;;;;;;;;;11.68;84.73;100691.50;20521466;28;19921;-60
2023/03/22 07:19:04;;;;;;;;;;;;;;;11.75;84.39;100675.69;20529175;28;19922;-58
2023/03/22 07:29:25;;;;;;;;;;;;;;;11.83;84.28;100672.81;20536790;28;19968;-58
2023/03/22 07:39:47;;;;;;;;;;;;;;;12.02;83.39;100666.00;20514579;28;19929;-59
2023/03/22 07:50:11;;;;;;;;;;;;;;;12.13;83.42;100650.84;20525451;28;19946;-59
2023/03/22 08:00:32;;;;;;;;;;;;;;;12.27;82.40;100653.75;20540399;28;19931;-60
2023/03/22 08:10:54;;;;;;;;;;;;;;;12.42;81.48;100634.13;20522153;28;20016;-58
2023/03/22 08:21:15;;;;;;;;;;;;;;;12.60;80.30;100642.00;20517946;28;20490;-60
2023/03/22 08:31:37;;;;;;;;;;;;;;;12.70;79.57;100632.94;20531467;28;21160;-58
2023/03/22 08:41:58;;;;;;;;;;;;;;;12.79;79.37;100634.28;20521142;28;19926;-59
2023/03/22 08:52:20;;;;;;;;;;;;;;;12.73;79.45;100637.13;20520262;28;20000;-58
2023/03/22 09:02:41;;;;;;;;;;;;;;;12.74;78.57;100634.50;20535244;28;19969;-59
2023/03/22 09:13:02;;;;;;;;;;;;;;;12.92;78.55;100618.13;20527674;28;19926;-58
2023/03/22 09:23:24;;;;;;;;;;;;;;;12.98;77.31;100617.84;20533544;28;19922;-58
2023/03/22 09:33:45;;;;;;;;;;;;;;;13.06;77.53;100626.19;20533064;28;19980;-58
2023/03/22 09:44:11;;;;;;;;;;;;;;;13.09;76.15;100648.63;20538524;28;20307;-59
2023/03/22 09:54:34;;;;;;;;;;;;;;;13.16;76.92;100618.88;20541500;28;19973;-58
2023/03/22 10:05:01;;;;;;;;;;;;;;;13.44;75.38;100615.88;20519953;28;19985;-57
2023/03/22 10:15:27;;;;;;;;;;;;;;;13.48;74.98;100609.63;20521716;28;19945;-57
2023/03/22 10:25:49;;;;;;;;;;;;;;;13.64;74.55;100597.63;20532811;28;20014;-58
2023/03/22 10:36:12;;;;;;;;;;;;;;;13.73;73.63;100591.97;20519525;28;19989;-59
2023/03/22 10:46:36;;;;;;;;;;;;;;;13.83;73.28;100578.47;20525591;28;19926;-58
2023/03/22 10:56:58;;;;;;;;;;;;;;;14.13;71.84;100578.75;20523169;28;19922;-59
2023/03/22 11:07:36;;;;;;;;;;;;;;;14.27;71.48;100610.19;20520574;28;19933;-59
2023/03/22 11:18:00;;;;;;;;;;;;;;;14.15;71.93;100608.16;20537020;28;19934;-59
2023/03/22 11:28:25;;;;;;;;;;;;;;;13.93;73.22;100602.28;20528451;28;19923;-58
2023/03/22 11:38:47;;;;;;;;;;;;;;;13.76;72.80;100602.22;20520170;28;19981;-59
2023/03/22 11:49:13;;;;;;;;;;;;;;;13.47;76.49;100619.19;20519123;28;19933;-59
2023/03/22 11:59:43;;;;;;;;;;;;;;;13.19;77.56;100620.47;20518279;28;20016;-58
2023/03/22 12:10:25;;;;;;;;;;;;;;;12.94;79.63;100625.84;20513742;28;19995;-58
2023/03/22 12:21:00;;;;;;;;;;;;;;;12.85;81.83;100619.31;20507421;28;19922;-58
2023/03/22 12:31:25;;;;;;;;;;;;;;;12.95;79.58;100605.00;20517165;28;19922;-59
2023/03/22 12:41:49;;;;;;;;;;;;;;;12.98;79.92;100599.66;20518251;28;19930;-59
2023/03/22 12:52:14;;;;;;;;;;;;;;;13.19;79.27;100578.88;20516771;28;19948;-59
2023/03/22 13:02:35;;;;;;;;;;;;;;;13.37;78.14;100585.88;20517241;28;19929;-58
2023/03/22 13:13:16;;;;;;;;;;;;;;;13.27;77.47;100607.97;20505102;28;20242;-58
2023/03/22 13:23:55;;;;;;;;;;;;;;;13.16;77.93;100610.22;20518457;28;19929;-59
2023/03/22 13:34:18;;;;;;;;;;;;;;;13.15;78.69;100624.13;20536418;28;19996;-58
2023/03/22 13:44:44;;;;;;;;;;;;;;;12.81;81.89;100616.91;20524421;28;19922;-58
2023/03/22 13:55:15;;;;;;;;;;;;;;;12.59;83.01;100627.34;20527889;28;20290;-58
2023/03/22 14:05:41;;;;;;;;;;;;;;;12.49;84.09;100638.19;20526605;28;19957;-58
2023/03/22 14:16:21;;;;;;;;;;;;;;;12.47;82.81;100632.22;20508030;28;19996;-59
2023/03/22 14:26:45;;;;;;;;;;;;;;;12.51;82.57;100629.41;20525319;28;19933;-58
2023/03/22 14:37:10;;;;;;;;;;;;;;;12.43;83.55;100641.03;20536142;28;19922;-59
2023/03/22 14:47:39;;;;;;;;;;;;;;;12.31;83.80;100644.94;20529653;28;19996;-59
2023/03/22 14:58:00;;;;;;;;;;;;;;;12.23;85.16;100646.16;20521335;28;19923;-59
2023/03/22 15:08:24;;;;;;;;;;;;;;;12.16;85.26;100645.53;20516940;28;20310;-59
2023/03/22 15:18:46;;;;;;;;;;;;;;;12.06;86.30;100644.22;20503304;28;20396;-59
2023/03/22 15:29:07;;;;;;;;;;;;;;;12.07;86.29;100635.53;20510764;28;19930;-60
2023/03/22 15:39:35;;;;;;;;;;;;;;;12.18;85.75;100617.78;20528909;28;20393;-60
2023/03/22 15:49:57;;;;;;;;;;;;;;;12.26;83.87;100607.97;20507764;28;19931;-59
2023/03/22 16:00:22;;;;;;;;;;;;;;;12.35;83.02;100589.44;20519849;28;20012;-59
2023/03/22 16:10:43;;;;;;;;;;;;;;;12.33;82.85;100604.22;20495624;28;19969;-58
2023/03/22 16:21:04;;;;;;;;;;;;;;;12.43;82.43;100615.91;20516343;28;19922;-59
2023/03/22 16:31:25;;;;;;;;;;;;;;;12.44;82.23;100617.59;20501310;28;19926;-58
2023/03/22 16:41:46;;;;;;;;;;;;;;;12.47;82.54;100621.81;20505703;28;19949;-58
2023/03/22 16:52:10;;;;;;;;;;;;;;;12.49;82.04;100599.25;20518089;28;20414;-59
2023/03/22 17:02:32;;;;;;;;;;;;;;;12.51;82.11;100616.44;20508074;28;19937;-60
2023/03/22 17:12:53;;;;;;;;;;;;;;;12.55;81.74;100612.81;20508833;28;19929;-60
2023/03/22 17:23:13;;;;;;;;;;;;;;;12.57;81.04;100577.25;20527232;28;19933;-59
2023/03/22 17:33:34;;;;;;;;;;;;;;;12.53;81.48;100556.66;20516407;28;20463;-60
2023/03/22 17:43:55;;;;;;;;;;;;;;;12.53;81.60;100570.50;20529666;28;20033;-59
2023/03/22 17:54:15;;;;;;;;;;;;;;;12.56;80.86;100569.53;20530348;28;19922;-60
2023/03/22 18:04:35;;;;;;;;;;;;;;;12.62;80.70;100558.88;20527215;28;19977;-58
2023/03/22 18:14:56;;;;;;;;;;;;;;;12.58;81.17;100565.13;20503901;28;19925;-58
2023/03/22 18:25:18;;;;;;;;;;;;;;;12.60;80.52;100556.34;20516400;28;19922;-59
2023/03/22 18:35:38;;;;;;;;;;;;;;;12.64;79.93;100544.91;20538685;28;19998;-60
2023/03/22 18:45:58;;;;;;;;;;;;;;;12.60;80.66;100552.94;20524265;28;20008;-60
2023/03/22 18:56:19;;;;;;;;;;;;;;;12.71;79.57;100561.91;20503220;28;19970;-60
2023/03/22 19:06:41;;;;;;;;;;;;;;;12.65;80.67;100572.59;20540078;28;19997;-60
2023/03/22 19:17:01;;;;;;;;;;;;;;;12.47;82.17;100581.13;20511411;28;19926;-59
2023/03/22 19:27:22;;;;;;;;;;;;;;;12.41;83.39;100558.03;20513251;28;19926;-59
2023/03/22 19:37:42;;;;;;;;;;;;;;;12.18;85.94;100565.91;20526502;28;19930;-59
2023/03/22 19:48:03;;;;;;;;;;;;;;;11.99;88.72;100555.44;20505421;28;20333;-60
2023/03/22 19:58:24;;;;;;;;;;;;;;;11.84;90.76;100552.63;20499760;28;19932;-59
2023/03/22 20:08:44;;;;;;;;;;;;;;;11.81;90.80;100524.25;20505276;28;19922;-59
2023/03/22 20:19:05;;;;;;;;;;;;;;;11.67;93.38;100500.59;20504803;28;19926;-58
2023/03/22 20:29:25;;;;;;;;;;;;;;;11.66;93.00;100507.56;20527968;28;19922;-59
2023/03/22 20:39:45;;;;;;;;;;;;;;;11.65;93.51;100505.84;20522922;28;19970;-60
2023/03/22 20:50:06;;;;;;;;;;;;;;;11.74;92.67;100499.44;20520445;28;19933;-59
2023/03/22 21:00:27;;;;;;;;;;;;;;;11.75;92.76;100501.16;20533281;28;19992;-59
2023/03/22 21:10:47;;;;;;;;;;;;;;;11.78;93.06;100477.69;20520231;28;19922;-60
2023/03/22 21:21:07;;;;;;;;;;;;;;;11.80;91.91;100460.31;20516113;28;19926;-60
2023/03/22 21:31:28;;;;;;;;;;;;;;;11.86;91.53;100484.25;20526745;28;20041;-58
2023/03/22 21:41:48;;;;;;;;;;;;;;;11.88;91.47;100468.63;20521419;28;19922;-59
2023/03/22 21:52:08;;;;;;;;;;;;;;;11.86;93.20;100473.03;20513389;28;19993;-58
2023/03/22 22:02:29;;;;;;;;;;;;;;;11.86;92.56;100455.75;20537086;28;20267;-59
2023/03/22 22:12:54;;;;;;;;;;;;;;;11.87;93.11;100441.00;20519942;28;19922;-60
2023/03/22 22:23:15;;;;;;;;;;;;;;;11.82;93.58;100430.00;20515112;28;19922;-59
2023/03/22 22:33:38;;;;;;;;;;;;;;;11.75;94.23;100419.06;20516897;28;19926;-58
2023/03/22 22:43:59;;;;;;;;;;;;;;;11.71;97.12;100419.22;20509018;28;19933;-59
2023/03/22 22:54:19;;;;;;;;;;;;;;;11.73;97.06;100399.28;20511483;28;19956;-59
2023/03/22 23:04:40;;;;;;;;;;;;;;;11.76;97.07;100392.22;20513015;28;19969;-59
2023/03/22 23:15:00;;;;;;;;;;;;;;;11.74;96.71;100383.66;20508686;28;19926;-58
2023/03/22 23:25:20;;;;;;;;;;;;;;;11.78;95.82;100381.78;20521717;28;19926;-58
2023/03/22 23:35:41;;;;;;;;;;;;;;;11.75;96.31;100369.81;20514764;28;21880;-58
2023/03/22 23:46:01;;;;;;;;;;;;;;;11.78;96.36;100335.09;20500328;28;19926;-60
2023/03/22 23:56:22;;;;;;;;;;;;;;;11.80;96.57;100328.13;20491496;28;19929;-59
